Time;durP1;ratioP1;P1;durP2;ratioP2;P2;SDS_P1;SDS_P2;PMS_P1;PMS_P2;Temp;Humidity;BMP_temperature;BMP_pressure;BME280_temperature;BME280_humidity;BME280_pressure;Samples;Min_cycle;Max_cycle;Signal;HPM_P1;HPM_P2
2023/07/01 00:00:25;;;;;;;5.33;4.10;;;;;20.00;96141.00;;;;5055461;28;20203;-86
2023/07/01 00:03:14;;;;;;;4.63;3.67;;;;;20.30;96150.00;;;;5056526;28;20220;-85
2023/07/01 00:06:03;;;;;;;3.97;3.20;;;;;20.30;96135.00;;;;5065855;28;20204;-85
2023/07/01 00:08:53;;;;;;;4.30;3.17;;;;;20.30;96141.00;;;;5066902;28;20222;-85
2023/07/01 00:11:42;;;;;;;3.90;3.60;;;;;20.40;96136.00;;;;5059920;28;20963;-86
2023/07/01 00:14:31;;;;;;;3.43;3.13;;;;;20.60;96133.00;;;;5059164;28;20617;-85
2023/07/01 00:17:21;;;;;;;4.30;3.27;;;;;20.60;96124.00;;;;5056021;28;20207;-87
2023/07/01 00:20:12;;;;;;;5.20;3.30;;;;;20.50;96123.00;;;;5060044;28;20201;-85
2023/07/01 00:23:01;;;;;;;3.83;2.80;;;;;20.50;96115.00;;;;5059843;28;20230;-85
2023/07/01 00:25:50;;;;;;;4.20;2.90;;;;;20.10;96113.00;;;;5053667;28;20216;-84
2023/07/01 00:28:39;;;;;;;3.97;3.10;;;;;20.10;96112.00;;;;5057747;28;20204;-85
2023/07/01 00:31:28;;;;;;;3.93;3.30;;;;;20.40;96115.00;;;;5061231;28;20232;-85
2023/07/01 00:34:19;;;;;;;3.83;3.30;;;;;19.80;96109.00;;;;5057971;28;20622;-89
2023/07/01 00:37:08;;;;;;;4.63;3.43;;;;;20.40;96117.00;;;;5056504;28;20217;-86
2023/07/01 00:39:57;;;;;;;3.90;3.00;;;;;20.30;96117.00;;;;5057725;28;20568;-87
2023/07/01 00:42:47;;;;;;;4.57;3.90;;;;;20.70;96116.00;;;;5059402;28;20214;-87
2023/07/01 00:45:36;;;;;;;3.50;2.90;;;;;20.70;96113.00;;;;5065154;28;20192;-87
2023/07/01 00:48:27;;;;;;;3.97;3.57;;;;;20.60;96117.00;;;;5055571;28;20224;-85
2023/07/01 00:51:17;;;;;;;5.00;3.00;;;;;20.60;96117.00;;;;5057292;28;20216;-85
2023/07/01 00:54:06;;;;;;;2.93;2.53;;;;;20.50;96120.00;;;;5060812;28;20676;-86
2023/07/01 00:56:55;;;;;;;5.43;3.07;;;;;20.50;96123.00;;;;5057456;28;20208;-86
2023/07/01 00:59:45;;;;;;;5.33;3.10;;;;;20.30;96119.00;;;;5057679;28;20712;-87
2023/07/01 01:02:39;;;;;;;3.77;3.40;;;;;20.50;96115.00;;;;5053017;28;20208;-86
2023/07/01 01:05:33;;;;;;;4.43;3.07;;;;;20.80;96114.00;;;;5065267;28;20283;-86
2023/07/01 01:08:28;;;;;;;3.53;3.10;;;;;20.90;96112.00;;;;5053172;28;20207;-86
2023/07/01 01:11:17;;;;;;;3.50;3.20;;;;;20.80;96105.00;;;;5069499;28;20740;-86
2023/07/01 01:14:07;;;;;;;3.33;3.03;;;;;20.50;96112.00;;;;5057038;28;20688;-86
2023/07/01 01:16:57;;;;;;;4.47;2.90;;;;;20.40;96109.00;;;;5062310;28;20208;-87
2023/07/01 01:19:50;;;;;;;3.47;3.13;;;;;20.40;96101.00;;;;5063112;28;20200;-87
2023/07/01 01:22:45;;;;;;;5.07;3.73;;;;;20.40;96105.00;;;;5061711;28;20738;-85
2023/07/01 01:25:42;;;;;;;4.20;3.17;;;;;20.40;96112.00;;;;5060056;28;20216;-86
2023/07/01 01:28:33;;;;;;;5.83;3.50;;;;;20.30;96108.00;;;;5059557;28;20203;-86
2023/07/01 01:31:22;;;;;;;4.37;3.40;;;;;19.90;96109.00;;;;5059245;28;20262;-86
2023/07/01 01:34:11;;;;;;;3.50;3.20;;;;;20.40;96111.00;;;;5060885;28;20196;-86
2023/07/01 01:37:02;;;;;;;4.33;3.93;;;;;20.30;96104.00;;;;5054537;28;20211;-85
2023/07/01 01:39:55;;;;;;;3.40;3.10;;;;;20.20;96103.00;;;;5053757;28;20201;-87
2023/07/01 01:42:45;;;;;;;7.30;3.57;;;;;20.10;96108.00;;;;5054144;28;20236;-87
2023/07/01 01:45:36;;;;;;;5.10;3.90;;;;;20.10;96103.00;;;;5059733;28;20207;-86
2023/07/01 01:48:26;;;;;;;4.27;3.40;;;;;19.80;96104.00;;;;5065161;28;20207;-85
2023/07/01 01:51:16;;;;;;;3.90;3.47;;;;;20.20;96103.00;;;;5065982;28;20227;-86
2023/07/01 01:54:06;;;;;;;5.00;3.40;;;;;20.20;96104.00;;;;5057529;28;20197;-86
2023/07/01 01:56:55;;;;;;;3.80;3.33;;;;;20.50;96105.00;;;;5055139;28;20212;-86
2023/07/01 01:59:45;;;;;;;5.03;3.93;;;;;20.60;96111.00;;;;5060641;28;20196;-87
2023/07/01 02:02:36;;;;;;;6.60;4.10;;;;;20.60;96099.00;;;;5052594;28;20216;-87
2023/07/01 02:05:26;;;;;;;4.10;3.70;;;;;20.40;96101.00;;;;5062430;28;20223;-86
2023/07/01 02:08:15;;;;;;;3.30;3.00;;;;;20.60;96098.00;;;;5056667;28;20731;-86
2023/07/01 02:11:04;;;;;;;4.37;3.60;;;;;20.50;96103.00;;;;5061125;28;20592;-87
2023/07/01 02:13:53;;;;;;;3.93;3.63;;;;;20.40;96114.00;;;;5063138;28;20683;-86
2023/07/01 02:16:42;;;;;;;4.73;3.43;;;;;20.00;96111.00;;;;5056353;28;20270;-84
2023/07/01 02:19:33;;;;;;;3.67;2.97;;;;;20.10;96106.00;;;;5053145;28;20193;-87
2023/07/01 02:22:22;;;;;;;5.10;3.33;;;;;20.50;96115.00;;;;5064214;28;20228;-86
2023/07/01 02:25:11;;;;;;;5.43;4.00;;;;;20.40;96116.00;;;;5063840;28;20286;-86
2023/07/01 02:28:00;;;;;;;6.00;3.30;;;;;20.50;96120.00;;;;5061333;28;20212;-87
2023/07/01 02:30:49;;;;;;;5.50;4.13;;;;;20.50;96115.00;;;;5058228;28;20231;-87
2023/07/01 02:33:38;;;;;;;4.27;3.73;;;;;20.60;96120.00;;;;5057906;28;20286;-86
2023/07/01 02:36:29;;;;;;;4.97;3.17;;;;;20.60;96121.00;;;;5063092;28;20204;-86
2023/07/01 02:39:18;;;;;;;3.67;3.37;;;;;20.60;96121.00;;;;5064481;28;20210;-87
2023/07/01 02:42:07;;;;;;;4.47;3.70;;;;;20.50;96126.00;;;;5065454;28;20581;-87
2023/07/01 02:44:56;;;;;;;6.27;4.27;;;;;20.50;96118.00;;;;5053230;28;20592;-86
2023/07/01 02:47:46;;;;;;;5.37;4.70;;;;;20.60;96110.00;;;;5064811;28;20211;-86
2023/07/01 02:50:35;;;;;;;5.40;4.83;;;;;20.50;96119.00;;;;5067792;28;20696;-87
2023/07/01 02:53:25;;;;;;;4.40;4.00;;;;;20.50;96130.00;;;;5062138;28;20775;-87
2023/07/01 02:56:14;;;;;;;5.33;4.13;;;;;20.20;96120.00;;;;5065410;28;20698;-86
2023/07/01 02:59:04;;;;;;;6.30;3.60;;;;;20.10;96125.00;;;;5060033;28;20215;-87
2023/07/01 03:01:53;;;;;;;3.40;3.10;;;;;19.70;96130.00;;;;5055824;28;20221;-87
2023/07/01 03:04:43;;;;;;;5.30;3.90;;;;;20.00;96125.00;;;;5054849;28;20228;-86
2023/07/01 03:07:32;;;;;;;4.27;3.87;;;;;20.20;96126.00;;;;5061945;28;20226;-88
2023/07/01 03:10:23;;;;;;;4.33;3.67;;;;;20.10;96128.00;;;;5062231;28;20680;-86
2023/07/01 03:13:12;;;;;;;4.73;4.23;;;;;20.30;96136.00;;;;5060862;28;20196;-87
2023/07/01 03:16:01;;;;;;;4.83;3.87;;;;;19.90;96149.00;;;;5061107;28;20242;-86
2023/07/01 03:18:50;;;;;;;4.40;3.70;;;;;20.10;96138.00;;;;5065711;28;20797;-87
2023/07/01 03:21:39;;;;;;;4.27;3.87;;;;;20.20;96132.00;;;;5066797;28;20224;-86
2023/07/01 03:24:33;;;;;;;4.30;3.90;;;;;20.40;96135.00;;;;5066043;28;20220;-86
2023/07/01 03:27:24;;;;;;;5.57;4.40;;;;;20.30;96131.00;;;;5058843;28;20572;-86
2023/07/01 03:30:14;;;;;;;5.07;4.53;;;;;20.40;96138.00;;;;5056275;28;20689;-87
2023/07/01 03:33:05;;;;;;;5.97;5.00;;;;;20.50;96139.00;;;;5062325;28;20236;-85
2023/07/01 03:35:54;;;;;;;4.90;4.10;;;;;20.50;96138.00;;;;5063221;28;20200;-87
2023/07/01 03:38:43;;;;;;;4.93;3.83;;;;;20.30;96144.00;;;;5061906;28;21095;-87
2023/07/01 03:41:32;;;;;;;5.57;4.50;;;;;20.10;96138.00;;;;5060713;28;20325;-87
2023/07/01 03:44:23;;;;;;;5.97;3.90;;;;;20.10;96147.00;;;;5063809;28;20200;-86
2023/07/01 03:47:13;;;;;;;4.80;4.10;;;;;20.00;96143.00;;;;5062841;28;20664;-87
2023/07/01 03:50:02;;;;;;;7.73;4.57;;;;;20.30;96143.00;;;;5056121;28;20204;-86
2023/07/01 03:52:51;;;;;;;3.53;3.23;;;;;20.40;96145.00;;;;5060373;28;20203;-86
2023/07/01 03:55:41;;;;;;;5.20;4.00;;;;;20.40;96149.00;;;;5060621;28;20261;-87
2023/07/01 03:58:30;;;;;;;5.27;4.33;;;;;20.20;96142.00;;;;5058654;28;20199;-86
2023/07/01 04:01:23;;;;;;;3.87;3.43;;;;;19.60;96138.00;;;;5061709;28;20631;-85
2023/07/01 04:04:13;;;;;;;6.57;4.03;;;;;20.00;96140.00;;;;5059414;28;20251;-86
2023/07/01 04:07:04;;;;;;;4.57;4.17;;;;;19.90;96133.00;;;;5064861;28;20249;-85
2023/07/01 04:09:53;;;;;;;4.67;3.83;;;;;20.00;96131.00;;;;5059286;28;20206;-86
2023/07/01 04:12:42;;;;;;;7.10;4.70;;;;;20.00;96121.00;;;;5063746;28;20208;-85
2023/07/01 04:15:31;;;;;;;5.97;4.57;;;;;19.90;96122.00;;;;5064907;28;20200;-85
2023/07/01 04:18:22;;;;;;;5.10;4.60;;;;;19.90;96122.00;;;;5065278;28;20206;-85
2023/07/01 04:21:11;;;;;;;5.47;4.20;;;;;19.70;96122.00;;;;5058396;28;20219;-84
2023/07/01 04:24:02;;;;;;;8.30;5.87;;;;;19.20;96120.00;;;;5068923;28;20226;-86
2023/07/01 04:26:52;;;;;;;4.20;3.80;;;;;19.30;96133.00;;;;5059113;28;20223;-86
2023/07/01 04:29:41;;;;;;;5.80;5.20;;;;;19.60;96123.00;;;;5060282;28;20644;-86
2023/07/01 04:32:30;;;;;;;5.27;4.77;;;;;19.30;96129.00;;;;5059086;28;20216;-85
2023/07/01 04:35:20;;;;;;;6.23;4.97;;;;;19.70;96131.00;;;;5057304;28;20310;-85
2023/07/01 04:38:09;;;;;;;6.83;5.43;;;;;20.00;96128.00;;;;5058626;28;20208;-85
2023/07/01 04:40:58;;;;;;;11.07;5.97;;;;;20.30;96118.00;;;;5065404;28;20228;-85
2023/07/01 04:43:47;;;;;;;6.13;5.63;;;;;20.10;96119.00;;;;5063952;28;20177;-85
2023/07/01 04:46:36;;;;;;;7.80;5.53;;;;;20.50;96125.00;;;;5066092;28;20595;-86
2023/07/01 04:49:25;;;;;;;6.83;6.23;;;;;20.50;96122.00;;;;5063487;28;20200;-85
2023/07/01 04:52:16;;;;;;;6.77;6.07;;;;;20.70;96125.00;;;;5066475;28;20237;-86
2023/07/01 04:55:06;;;;;;;7.10;6.43;;;;;20.80;96118.00;;;;5066803;28;20215;-85
2023/07/01 04:57:55;;;;;;;7.63;6.57;;;;;21.00;96124.00;;;;5053000;28;20215;-86
2023/07/01 05:00:44;;;;;;;7.83;7.13;;;;;20.60;96129.00;;;;5057888;28;20232;-86
2023/07/01 05:03:33;;;;;;;7.10;6.27;;;;;20.90;96130.00;;;;5060737;28;20886;-86
2023/07/01 05:06:23;;;;;;;6.23;5.63;;;;;21.10;96127.00;;;;5055783;28;20223;-85
2023/07/01 05:09:13;;;;;;;7.53;6.83;;;;;21.30;96133.00;;;;5056519;28;20204;-85
2023/07/01 05:12:02;;;;;;;10.23;6.50;;;;;21.30;96141.00;;;;5058353;28;20231;-86
2023/07/01 05:14:51;;;;;;;8.73;7.00;;;;;21.00;96130.00;;;;5061739;28;20258;-86
2023/07/01 05:17:40;;;;;;;8.40;7.60;;;;;21.20;96140.00;;;;5053321;28;20203;-86
2023/07/01 05:20:29;;;;;;;11.03;6.47;;;;;21.20;96141.00;;;;5065300;28;20223;-86
2023/07/01 05:23:19;;;;;;;6.20;5.60;;;;;21.20;96135.00;;;;5063128;28;20200;-86
2023/07/01 05:26:09;;;;;;;7.77;6.20;;;;;21.30;96144.00;;;;5064739;28;20220;-85
2023/07/01 05:28:59;;;;;;;6.07;5.47;;;;;21.40;96136.00;;;;5062803;28;20211;-85
2023/07/01 05:31:49;;;;;;;6.07;5.30;;;;;21.40;96140.00;;;;5056150;28;20220;-85
2023/07/01 05:34:38;;;;;;;7.47;5.70;;;;;21.40;96145.00;;;;5057977;28;20203;-85
2023/07/01 05:37:27;;;;;;;7.30;5.63;;;;;21.00;96148.00;;;;5059682;28;20196;-85
2023/07/01 05:40:17;;;;;;;5.70;5.10;;;;;20.90;96140.00;;;;5063399;28;20206;-86
2023/07/01 05:43:07;;;;;;;6.20;5.50;;;;;21.30;96156.00;;;;5059729;28;20677;-86
2023/07/01 05:45:57;;;;;;;5.27;4.77;;;;;21.20;96152.00;;;;5066080;28;20224;-86
2023/07/01 05:48:46;;;;;;;5.50;5.00;;;;;21.40;96147.00;;;;5053951;28;20215;-86
2023/07/01 05:51:35;;;;;;;4.97;4.57;;;;;21.30;96155.00;;;;5052987;28;20727;-86
2023/07/01 05:54:24;;;;;;;5.70;4.83;;;;;21.40;96144.00;;;;5062053;28;20212;-86
2023/07/01 05:57:14;;;;;;;4.93;3.67;;;;;21.20;96151.00;;;;5065372;28;20196;-86
2023/07/01 06:00:05;;;;;;;5.03;4.53;;;;;21.40;96145.00;;;;5065369;28;20265;-85
2023/07/01 06:02:54;;;;;;;6.20;4.47;;;;;21.70;96152.00;;;;5063811;28;20200;-86
2023/07/01 06:05:43;;;;;;;5.53;5.03;;;;;21.70;96144.00;;;;5061508;28;20247;-86
2023/07/01 06:08:32;;;;;;;4.73;4.33;;;;;21.70;96149.00;;;;5066011;28;20207;-85
2023/07/01 06:11:22;;;;;;;5.13;4.70;;;;;21.50;96148.00;;;;5061402;28;20241;-86
2023/07/01 06:14:11;;;;;;;4.67;4.27;;;;;21.50;96148.00;;;;5058174;28;20199;-86
2023/07/01 06:17:02;;;;;;;5.23;4.73;;;;;21.40;96148.00;;;;5065844;28;20210;-85
2023/07/01 06:19:51;;;;;;;5.10;4.70;;;;;21.30;96143.00;;;;5060506;28;20196;-84
2023/07/01 06:22:42;;;;;;;5.13;4.50;;;;;21.40;96144.00;;;;5062184;28;20203;-85
2023/07/01 06:25:31;;;;;;;9.10;5.67;;;;;21.20;96143.00;;;;5064062;28;20261;-87
2023/07/01 06:28:20;;;;;;;5.17;4.77;;;;;21.20;96142.00;;;;5063362;28;20207;-84
2023/07/01 06:31:10;;;;;;;6.50;5.87;;;;;21.20;96153.00;;;;5065743;28;20231;-85
2023/07/01 06:34:05;;;;;;;5.37;4.93;;;;;21.70;96150.00;;;;5065656;28;20204;-86
2023/07/01 06:36:54;;;;;;;6.60;5.90;;;;;21.70;96146.00;;;;5063261;28;20214;-86
2023/07/01 06:39:43;;;;;;;7.40;5.53;;;;;21.80;96145.00;;;;5061827;28;20216;-85
2023/07/01 06:42:32;;;;;;;5.87;5.37;;;;;22.00;96146.00;;;;5063588;28;20231;-85
2023/07/01 06:45:21;;;;;;;6.50;5.40;;;;;22.10;96144.00;;;;5064501;28;20827;-86
2023/07/01 06:48:11;;;;;;;6.33;5.30;;;;;22.20;96152.00;;;;5062827;28;20200;-86
2023/07/01 06:51:03;;;;;;;6.30;5.60;;;;;22.10;96151.00;;;;5061661;28;20235;-86
2023/07/01 06:53:52;;;;;;;6.13;5.53;;;;;22.00;96150.00;;;;5063599;28;20246;-87
2023/07/01 06:56:41;;;;;;;6.53;5.47;;;;;22.00;96149.00;;;;5066064;28;20203;-86
2023/07/01 06:59:30;;;;;;;7.70;5.93;;;;;22.00;96150.00;;;;5063670;28;20222;-86
2023/07/01 07:02:20;;;;;;;6.10;5.37;;;;;22.10;96148.00;;;;5060034;28;20232;-87
2023/07/01 07:05:10;;;;;;;5.37;4.87;;;;;22.20;96152.00;;;;5065267;28;20215;-86
2023/07/01 07:08:01;;;;;;;5.77;5.00;;;;;22.00;96148.00;;;;5065585;28;20231;-86
2023/07/01 07:10:50;;;;;;;6.00;5.40;;;;;22.10;96158.00;;;;5058637;28;20221;-87
2023/07/01 07:13:40;;;;;;;6.30;5.47;;;;;22.20;96154.00;;;;5059827;28;20230;-86
2023/07/01 07:16:29;;;;;;;5.60;5.00;;;;;22.00;96152.00;;;;5062951;28;20192;-87
2023/07/01 07:19:18;;;;;;;6.53;5.63;;;;;21.90;96150.00;;;;5066177;28;20203;-86
2023/07/01 07:22:08;;;;;;;6.13;5.53;;;;;22.00;96151.00;;;;5063465;28;20218;-87
2023/07/01 07:24:59;;;;;;;6.47;5.87;;;;;21.90;96142.00;;;;5064663;28;20221;-86
2023/07/01 07:27:48;;;;;;;6.87;6.17;;;;;22.00;96145.00;;;;5061013;28;20677;-85
2023/07/01 07:30:38;;;;;;;6.67;5.60;;;;;22.00;96147.00;;;;5062099;28;20227;-87
2023/07/01 07:33:27;;;;;;;9.17;5.27;;;;;22.30;96152.00;;;;5063893;28;20195;-86
2023/07/01 07:36:16;;;;;;;7.63;5.17;;;;;22.30;96144.00;;;;5067119;28;20204;-88
2023/07/01 07:39:06;;;;;;;6.63;5.67;;;;;22.50;96147.00;;;;5064054;28;20258;-87
2023/07/01 07:41:56;;;;;;;6.13;5.53;;;;;22.40;96145.00;;;;5067856;28;20614;-87
2023/07/01 07:44:46;;;;;;;5.83;5.20;;;;;22.50;96142.00;;;;5066295;28;20196;-87
2023/07/01 07:47:35;;;;;;;5.70;4.87;;;;;22.30;96143.00;;;;5062965;28;20224;-87
2023/07/01 07:50:24;;;;;;;5.60;5.03;;;;;22.40;96142.00;;;;5060095;28;20225;-86
2023/07/01 07:53:14;;;;;;;8.27;5.63;;;;;22.50;96136.00;;;;5065027;28;20207;-88
2023/07/01 07:56:03;;;;;;;6.57;5.90;;;;;22.40;96140.00;;;;5063260;28;20200;-87
2023/07/01 07:58:53;;;;;;;8.03;5.03;;;;;22.40;96140.00;;;;5053663;28;20196;-87
2023/07/01 08:01:42;;;;;;;7.30;6.60;;;;;22.60;96141.00;;;;5059486;28;20227;-87
2023/07/01 08:04:32;;;;;;;5.77;5.27;;;;;22.50;96139.00;;;;5064821;28;20204;-86
2023/07/01 08:07:21;;;;;;;5.63;5.03;;;;;22.60;96138.00;;;;5066823;28;20216;-87
2023/07/01 08:10:11;;;;;;;7.03;6.30;;;;;22.50;96133.00;;;;5065557;28;20203;-87
2023/07/01 08:13:00;;;;;;;5.97;5.37;;;;;22.40;96137.00;;;;5064853;28;20208;-87
2023/07/01 08:15:51;;;;;;;7.27;5.20;;;;;22.40;96132.00;;;;5054707;28;20201;-88
2023/07/01 08:18:40;;;;;;;6.20;5.50;;;;;22.30;96143.00;;;;5056400;28;20556;-87
2023/07/01 08:21:29;;;;;;;5.93;5.33;;;;;22.60;96133.00;;;;5056532;28;20215;-87
2023/07/01 08:24:36;;;;;;;6.33;5.73;;;;;22.70;96140.00;;;;5076404;28;20204;-86
2023/07/01 08:27:25;;;;;;;6.30;5.67;;;;;23.10;96131.00;;;;5055850;28;20227;-87
2023/07/01 08:30:14;;;;;;;5.97;5.40;;;;;23.10;96118.00;;;;5053615;28;20605;-86
2023/07/01 08:33:05;;;;;;;7.03;6.00;;;;;23.20;96122.00;;;;5057190;28;20236;-86
2023/07/01 08:35:54;;;;;;;6.80;6.10;;;;;23.90;96122.00;;;;5060124;28;20286;-86
2023/07/01 08:38:43;;;;;;;6.83;5.30;;;;;24.40;96127.00;;;;5054618;28;20226;-86
2023/07/01 08:41:37;;;;;;;7.30;6.03;;;;;24.30;96131.00;;;;5059214;28;20224;-86
2023/07/01 08:44:27;;;;;;;7.27;6.03;;;;;24.40;96123.00;;;;5052541;28;20210;-87
2023/07/01 08:47:17;;;;;;;7.90;6.57;;;;;24.30;96134.00;;;;5057796;28;20294;-86
2023/07/01 08:50:09;;;;;;;6.27;5.67;;;;;23.90;96129.00;;;;5056509;28;20197;-85
2023/07/01 08:53:05;;;;;;;6.73;6.07;;;;;24.10;96131.00;;;;5062472;28;20214;-86
2023/07/01 08:55:54;;;;;;;6.60;5.40;;;;;23.70;96134.00;;;;5061873;28;20196;-87
2023/07/01 08:58:43;;;;;;;6.93;6.33;;;;;23.60;96140.00;;;;5060721;28;20196;-86
2023/07/01 09:01:34;;;;;;;6.50;5.90;;;;;24.30;96140.00;;;;5062255;28;20325;-87
2023/07/01 09:04:23;;;;;;;7.37;6.57;;;;;24.60;96134.00;;;;5066386;28;20620;-86
2023/07/01 09:07:14;;;;;;;8.67;7.13;;;;;24.80;96129.00;;;;5069005;28;20226;-88
2023/07/01 09:10:04;;;;;;;6.63;5.80;;;;;24.90;96130.00;;;;5061702;28;20207;-87
2023/07/01 09:12:54;;;;;;;7.37;6.33;;;;;25.00;96139.00;;;;5056925;28;20242;-87
2023/07/01 09:15:47;;;;;;;8.53;6.07;;;;;24.70;96127.00;;;;5066840;28;20212;-87
2023/07/01 09:18:40;;;;;;;10.83;6.33;;;;;24.80;96128.00;;;;5059316;28;20282;-87
2023/07/01 09:21:32;;;;;;;7.60;6.57;;;;;25.00;96130.00;;;;5060291;28;20247;-88
2023/07/01 09:24:41;;;;;;;8.30;6.17;;;;;25.10;96127.00;;;;5068200;28;20201;-87
2023/07/01 09:27:51;;;;;;;7.77;6.97;;;;;25.30;96132.00;;;;5066873;28;20215;-88
2023/07/01 09:30:55;;;;;;;7.13;6.43;;;;;25.30;96127.00;;;;5057969;28;20224;-90
2023/07/01 09:34:13;;;;;;;7.07;6.07;;;;;25.30;96131.00;;;;5059349;28;20204;-87
2023/07/01 09:37:23;;;;;;;7.80;6.47;;;;;25.10;96124.00;;;;5053773;28;20195;-88
2023/07/01 09:40:37;;;;;;;9.07;7.43;;;;;25.00;96133.00;;;;5057307;28;20225;-87
2023/07/01 09:43:43;;;;;;;6.43;5.73;;;;;24.90;96124.00;;;;5053900;28;20577;-87
2023/07/01 09:46:58;;;;;;;6.87;6.17;;;;;25.00;96127.00;;;;5058765;28;20199;-88
2023/07/01 09:50:02;;;;;;;10.87;5.97;;;;;25.10;96121.00;;;;4998716;28;20260;-87
2023/07/01 09:53:10;;;;;;;7.37;6.63;;;;;24.90;96136.00;;;;4996585;28;20953;-88
2023/07/01 09:56:30;;;;;;;9.13;7.30;;;;;24.90;96134.00;;;;5001869;28;20211;-87
2023/07/01 09:59:26;;;;;;;8.03;7.20;;;;;24.90;96131.00;;;;5002075;28;20201;-87
2023/07/01 10:02:33;;;;;;;7.97;7.17;;;;;25.00;96129.00;;;;4995849;28;20226;-88
2023/07/01 10:05:34;;;;;;;9.43;7.80;;;;;24.50;96123.00;;;;5002569;28;20238;-86
2023/07/01 10:08:35;;;;;;;8.47;6.97;;;;;24.80;96133.00;;;;5001570;28;20217;-87
2023/07/01 10:11:43;;;;;;;7.67;6.83;;;;;24.80;96129.00;;;;4998412;28;20593;-86
2023/07/01 10:14:42;;;;;;;8.63;6.47;;;;;24.80;96140.00;;;;5002034;28;20583;-87
2023/07/01 10:17:55;;;;;;;9.37;6.83;;;;;24.70;96131.00;;;;5002762;28;20729;-89
2023/07/01 10:20:55;;;;;;;8.33;7.23;;;;;24.90;96130.00;;;;4994967;28;20222;-87
2023/07/01 10:23:50;;;;;;;7.27;6.57;;;;;25.00;96133.00;;;;5001887;28;20199;-87
2023/07/01 10:27:15;;;;;;;7.97;6.73;;;;;25.10;96123.00;;;;5023033;28;20208;-88
2023/07/01 10:30:14;;;;;;;9.03;7.27;;;;;25.20;96119.00;;;;4979465;28;20219;-88
2023/07/01 10:33:43;;;;;;;8.53;7.03;;;;;25.20;96137.00;;;;5053632;28;20208;-86
2023/07/01 10:36:36;;;;;;;8.67;7.17;;;;;25.20;96126.00;;;;5061602;28;20211;-87
2023/07/01 10:39:33;;;;;;;7.93;6.40;;;;;25.20;96125.00;;;;5062328;28;20200;-87
2023/07/01 10:42:31;;;;;;;11.67;7.37;;;;;25.10;96135.00;;;;5055059;28;20220;-85
2023/07/01 10:45:39;;;;;;;7.83;7.00;;;;;25.10;96135.00;;;;5057345;28;20213;-86
2023/07/01 10:48:28;;;;;;;10.07;7.90;;;;;25.00;96133.00;;;;5052938;28;20676;-87
2023/07/01 10:51:17;;;;;;;9.43;7.07;;;;;25.00;96136.00;;;;5061835;28;20222;-85
2023/07/01 10:54:07;;;;;;;10.83;8.50;;;;;24.90;96130.00;;;;5061713;28;20211;-87
2023/07/01 10:57:13;;;;;;;12.37;8.00;;;;;24.80;96130.00;;;;5053828;28;20688;-86
2023/07/01 11:00:39;;;;;;;9.60;6.87;;;;;24.60;96132.00;;;;5061172;28;20201;-87
2023/07/01 11:03:54;;;;;;;11.33;8.17;;;;;24.40;96138.00;;;;5049205;28;20204;-85
2023/07/01 11:06:47;;;;;;;10.33;7.67;;;;;24.20;96149.00;;;;5055525;28;20285;-84
2023/07/01 11:09:36;;;;;;;10.97;7.63;;;;;23.90;96143.00;;;;5057064;28;20227;-84
2023/07/01 11:12:27;;;;;;;10.97;8.33;;;;;23.60;96151.00;;;;5060687;28;20730;-83
2023/07/01 11:15:19;;;;;;;13.30;7.90;;;;;23.40;96154.00;;;;5068063;28;20266;-83
2023/07/01 11:18:09;;;;;;;10.10;7.53;;;;;23.40;96153.00;;;;5060316;28;20591;-83
2023/07/01 11:20:59;;;;;;;11.50;8.83;;;;;23.10;96157.00;;;;5063402;28;20738;-83
2023/07/01 11:23:53;;;;;;;13.00;8.90;;;;;23.00;96157.00;;;;5053964;28;20204;-84
2023/07/01 11:26:43;;;;;;;12.30;8.40;;;;;22.80;96152.00;;;;5056631;28;20209;-84
2023/07/01 11:29:32;;;;;;;11.47;8.07;;;;;22.80;96154.00;;;;5062225;28;20222;-84
2023/07/01 11:32:21;;;;;;;11.23;9.37;;;;;22.80;96154.00;;;;5058983;28;20232;-84
2023/07/01 11:35:11;;;;;;;13.33;9.70;;;;;22.70;96142.00;;;;5056763;28;20212;-84
2023/07/01 11:38:00;;;;;;;12.93;8.67;;;;;22.90;96146.00;;;;5062743;28;20207;-84
2023/07/01 11:40:49;;;;;;;13.57;9.37;;;;;22.90;96145.00;;;;5059374;28;20219;-85
2023/07/01 11:43:40;;;;;;;10.60;9.00;;;;;22.90;96140.00;;;;5066152;28;20196;-84
2023/07/01 11:46:34;;;;;;;11.07;8.23;;;;;22.90;96141.00;;;;5063631;28;20226;-85
2023/07/01 11:49:25;;;;;;;12.17;8.47;;;;;22.90;96134.00;;;;5056444;28;20223;-84
2023/07/01 11:52:24;;;;;;;12.27;8.80;;;;;22.80;96132.00;;;;5059502;28;20232;-84
2023/07/01 11:55:13;;;;;;;11.30;9.20;;;;;22.70;96121.00;;;;5057781;28;20228;-84
2023/07/01 11:58:02;;;;;;;13.17;9.10;;;;;22.40;96126.00;;;;5062523;28;20207;-84
2023/07/01 12:00:51;;;;;;;14.03;10.00;;;;;22.60;96127.00;;;;5065793;28;20226;-84
2023/07/01 12:03:40;;;;;;;15.30;10.00;;;;;22.40;96123.00;;;;5061223;28;20196;-84
2023/07/01 12:06:29;;;;;;;13.90;8.60;;;;;22.50;96119.00;;;;5066298;28;20203;-85
2023/07/01 12:09:32;;;;;;;13.03;9.50;;;;;22.50;96121.00;;;;5060502;28;20602;-85
2023/07/01 12:12:37;;;;;;;12.93;9.97;;;;;22.80;96134.00;;;;5060669;28;20878;-84
2023/07/01 12:15:27;;;;;;;12.50;10.13;;;;;23.00;96119.00;;;;5061144;28;20204;-85
2023/07/01 12:18:26;;;;;;;14.83;10.73;;;;;22.80;96116.00;;;;5066938;28;20707;-85
2023/07/01 12:21:15;;;;;;;12.93;10.07;;;;;22.70;96110.00;;;;5065299;28;20226;-85
2023/07/01 12:24:05;;;;;;;12.67;9.57;;;;;22.60;96113.00;;;;5062805;28;20208;-84
2023/07/01 12:26:57;;;;;;;14.03;9.87;;;;;22.60;96103.00;;;;5066396;28;20216;-85
2023/07/01 12:29:46;;;;;;;12.87;10.13;;;;;22.30;96107.00;;;;5064566;28;20238;-85
2023/07/01 12:32:35;;;;;;;13.13;8.60;;;;;22.30;96094.00;;;;5056490;28;20216;-85
2023/07/01 12:35:24;;;;;;;13.03;9.90;;;;;22.40;96093.00;;;;5068488;28;20199;-85
2023/07/01 12:38:14;;;;;;;12.93;10.13;;;;;22.50;96104.00;;;;5056781;28;20696;-86
2023/07/01 12:41:04;;;;;;;11.37;8.73;;;;;22.30;96094.00;;;;5054394;28;20755;-85
2023/07/01 12:43:54;;;;;;;12.20;9.57;;;;;22.40;96102.00;;;;5063826;28;20211;-85
2023/07/01 12:46:44;;;;;;;14.57;8.43;;;;;22.50;96100.00;;;;5056660;28;20959;-85
2023/07/01 12:49:33;;;;;;;13.90;10.13;;;;;23.00;96100.00;;;;5051929;28;20227;-85
2023/07/01 12:52:22;;;;;;;16.97;9.80;;;;;23.30;96113.00;;;;5057172;28;20224;-85
2023/07/01 12:55:12;;;;;;;13.80;9.40;;;;;23.40;96107.00;;;;5061966;28;20200;-84
2023/07/01 12:58:01;;;;;;;14.30;9.77;;;;;23.60;96112.00;;;;5050100;28;20208;-85
2023/07/01 13:00:51;;;;;;;12.67;10.07;;;;;23.70;96116.00;;;;5061825;28;20212;-85
2023/07/01 13:03:45;;;;;;;13.50;10.27;;;;;23.70;96120.00;;;;5062282;28;20584;-85
2023/07/01 13:06:38;;;;;;;10.47;8.13;;;;;23.70;96112.00;;;;5063548;28;20200;-86
2023/07/01 13:09:38;;;;;;;12.43;9.47;;;;;23.60;96120.00;;;;5053181;28;20227;-85
2023/07/01 13:12:27;;;;;;;13.50;11.47;;;;;23.70;96119.00;;;;5068667;28;20231;-84
2023/07/01 13:15:24;;;;;;;12.50;8.83;;;;;23.70;96122.00;;;;5061197;28;20211;-85
2023/07/01 13:18:20;;;;;;;14.93;8.93;;;;;23.70;96119.00;;;;5057953;28;20202;-84
2023/07/01 13:21:10;;;;;;;9.33;8.43;;;;;23.80;96120.00;;;;5062352;28;20688;-85
2023/07/01 13:23:59;;;;;;;15.13;9.40;;;;;24.00;96121.00;;;;5054102;28;20253;-86
2023/07/01 13:26:49;;;;;;;13.57;9.87;;;;;23.90;96121.00;;;;5056114;28;20728;-86
2023/07/01 13:29:38;;;;;;;11.77;9.53;;;;;24.00;96119.00;;;;5049986;28;20244;-86
2023/07/01 13:32:28;;;;;;;11.37;8.73;;;;;24.00;96124.00;;;;5054673;28;20281;-85
2023/07/01 13:35:19;;;;;;;13.60;10.30;;;;;23.80;96119.00;;;;5062803;28;20208;-87
2023/07/01 13:38:09;;;;;;;11.83;9.13;;;;;24.00;96104.00;;;;5055939;28;20212;-86
2023/07/01 13:40:58;;;;;;;13.33;10.73;;;;;24.20;96103.00;;;;5058394;28;20747;-86
2023/07/01 13:43:47;;;;;;;13.70;9.27;;;;;24.30;96106.00;;;;5059445;28;20204;-86
2023/07/01 13:46:38;;;;;;;12.03;9.17;;;;;24.60;96107.00;;;;5060399;28;20215;-86
2023/07/01 13:49:31;;;;;;;11.90;9.13;;;;;24.60;96112.00;;;;5056181;28;20303;-86
2023/07/01 13:52:21;;;;;;;11.77;9.13;;;;;24.50;96108.00;;;;5053101;28;20212;-86
2023/07/01 13:55:11;;;;;;;11.60;9.03;;;;;24.50;96111.00;;;;5052866;28;20211;-86
2023/07/01 13:58:00;;;;;;;14.77;9.70;;;;;24.20;96116.00;;;;5060617;28;20210;-87
2023/07/01 14:00:50;;;;;;;13.90;10.23;;;;;24.10;96117.00;;;;5055047;28;20224;-86
2023/07/01 14:03:52;;;;;;;13.00;9.83;;;;;23.90;96104.00;;;;5056250;28;20564;-86
2023/07/01 14:06:42;;;;;;;11.50;9.27;;;;;24.10;96109.00;;;;5057725;28;20680;-86
2023/07/01 14:09:33;;;;;;;13.83;9.70;;;;;24.20;96099.00;;;;5057520;28;20201;-86
2023/07/01 14:12:22;;;;;;;14.30;10.23;;;;;24.50;96102.00;;;;5054548;28;20736;-86
2023/07/01 14:15:27;;;;;;;10.93;8.67;;;;;24.80;96108.00;;;;5056625;28;20204;-85